sensor_id;sensor_type;location;lat;lon;timestamp;temperature;humidity
75705;DHT22;64323;44.788;37.692;2022-10-16T00:00:56;12.95;68.37
75705;DHT22;64323;44.788;37.692;2022-10-16T00:03:27;12.92;68.74
75705;DHT22;64323;44.788;37.692;2022-10-16T00:06:00;12.86;69.48
75705;DHT22;64323;44.788;37.692;2022-10-16T00:08:32;12.81;70.05
75705;DHT22;64323;44.788;37.692;2022-10-16T00:11:10;12.82;70.45
75705;DHT22;64323;44.788;37.692;2022-10-16T00:13:44;12.84;71.10
75705;DHT22;64323;44.788;37.692;2022-10-16T00:16:16;12.82;71.61
75705;DHT22;64323;44.788;37.692;2022-10-16T00:18:48;12.85;71.68
75705;DHT22;64323;44.788;37.692;2022-10-16T00:21:23;12.87;71.96
75705;DHT22;64323;44.788;37.692;2022-10-16T00:24:14;12.89;71.45
75705;DHT22;64323;44.788;37.692;2022-10-16T00:26:49;12.82;71.94
75705;DHT22;64323;44.788;37.692;2022-10-16T00:29:21;12.74;72.52
75705;DHT22;64323;44.788;37.692;2022-10-16T00:31:53;12.74;72.61
75705;DHT22;64323;44.788;37.692;2022-10-16T00:34:25;12.77;72.87
75705;DHT22;64323;44.788;37.692;2022-10-16T00:36:56;12.78;72.49
75705;DHT22;64323;44.788;37.692;2022-10-16T00:39:28;12.77;72.39
75705;DHT22;64323;44.788;37.692;2022-10-16T00:42:00;12.77;72.43
75705;DHT22;64323;44.788;37.692;2022-10-16T00:44:47;12.76;72.81
75705;DHT22;64323;44.788;37.692;2022-10-16T00:47:24;12.84;72.38
75705;DHT22;64323;44.788;37.692;2022-10-16T00:50:06;12.86;72.22
75705;DHT22;64323;44.788;37.692;2022-10-16T00:52:43;12.90;72.32
75705;DHT22;64323;44.788;37.692;2022-10-16T00:55:16;12.92;72.02
75705;DHT22;64323;44.788;37.692;2022-10-16T00:57:49;12.95;72.06
75705;DHT22;64323;44.788;37.692;2022-10-16T01:00:24;13.00;71.43
75705;DHT22;64323;44.788;37.692;2022-10-16T01:03:00;12.97;72.11
75705;DHT22;64323;44.788;37.692;2022-10-16T01:05:47;12.95;72.28
75705;DHT22;64323;44.788;37.692;2022-10-16T01:08:32;12.87;72.02
75705;DHT22;64323;44.788;37.692;2022-10-16T01:11:19;12.86;72.45
75705;DHT22;64323;44.788;37.692;2022-10-16T01:13:58;12.89;71.68
75705;DHT22;64323;44.788;37.692;2022-10-16T01:17:01;12.89;71.77
75705;DHT22;64323;44.788;37.692;2022-10-16T01:25:59;12.67;72.41
75705;DHT22;64323;44.788;37.692;2022-10-16T01:29:20;12.61;72.41
75705;DHT22;64323;44.788;37.692;2022-10-16T01:31:55;12.52;72.41
75705;DHT22;64323;44.788;37.692;2022-10-16T01:34:35;12.50;72.54
75705;DHT22;64323;44.788;37.692;2022-10-16T01:37:12;12.50;72.70
75705;DHT22;64323;44.788;37.692;2022-10-16T01:39:47;12.60;72.41
75705;DHT22;64323;44.788;37.692;2022-10-16T01:42:25;12.69;72.35
75705;DHT22;64323;44.788;37.692;2022-10-16T01:44:59;12.64;72.59
75705;DHT22;64323;44.788;37.692;2022-10-16T01:47:32;12.64;72.57
75705;DHT22;64323;44.788;37.692;2022-10-16T01:50:06;12.67;72.76
75705;DHT22;64323;44.788;37.692;2022-10-16T01:52:43;12.67;72.29
75705;DHT22;64323;44.788;37.692;2022-10-16T01:55:20;12.64;73.19
75705;DHT22;64323;44.788;37.692;2022-10-16T01:57:55;12.65;73.35
75705;DHT22;64323;44.788;37.692;2022-10-16T02:00:28;12.64;73.32
75705;DHT22;64323;44.788;37.692;2022-10-16T02:03:02;12.71;73.61
75705;DHT22;64323;44.788;37.692;2022-10-16T02:08:12;12.73;73.51
75705;DHT22;64323;44.788;37.692;2022-10-16T02:10:44;12.75;73.92
75705;DHT22;64323;44.788;37.692;2022-10-16T02:13:39;12.75;74.09
75705;DHT22;64323;44.788;37.692;2022-10-16T02:16:14;12.76;74.23
75705;DHT22;64323;44.788;37.692;2022-10-16T02:18:46;12.77;73.99
75705;DHT22;64323;44.788;37.692;2022-10-16T02:21:23;12.85;74.23
75705;DHT22;64323;44.788;37.692;2022-10-16T02:24:09;12.84;73.54
75705;DHT22;64323;44.788;37.692;2022-10-16T02:26:50;12.87;74.15
75705;DHT22;64323;44.788;37.692;2022-10-16T02:29:25;12.90;74.61
75705;DHT22;64323;44.788;37.692;2022-10-16T02:32:01;12.90;74.71
75705;DHT22;64323;44.788;37.692;2022-10-16T02:34:34;12.91;74.60
75705;DHT22;64323;44.788;37.692;2022-10-16T02:37:06;12.94;74.29
75705;DHT22;64323;44.788;37.692;2022-10-16T02:39:40;12.99;74.36
75705;DHT22;64323;44.788;37.692;2022-10-16T02:42:13;13.02;73.77
75705;DHT22;64323;44.788;37.692;2022-10-16T02:44:45;13.04;73.44
75705;DHT22;64323;44.788;37.692;2022-10-16T02:47:17;13.00;74.50
75705;DHT22;64323;44.788;37.692;2022-10-16T02:49:49;13.03;73.98
75705;DHT22;64323;44.788;37.692;2022-10-16T02:52:21;13.03;74.22
75705;DHT22;64323;44.788;37.692;2022-10-16T02:54:53;13.01;74.18
75705;DHT22;64323;44.788;37.692;2022-10-16T02:57:25;13.02;73.75
75705;DHT22;64323;44.788;37.692;2022-10-16T02:59:56;13.03;73.86
75705;DHT22;64323;44.788;37.692;2022-10-16T03:02:28;12.99;74.54
75705;DHT22;64323;44.788;37.692;2022-10-16T03:05:00;13.00;74.41
75705;DHT22;64323;44.788;37.692;2022-10-16T03:07:32;12.99;73.77
75705;DHT22;64323;44.788;37.692;2022-10-16T03:10:04;12.94;73.03
75705;DHT22;64323;44.788;37.692;2022-10-16T03:12:36;12.91;73.18
75705;DHT22;64323;44.788;37.692;2022-10-16T03:15:08;12.86;73.93
75705;DHT22;64323;44.788;37.692;2022-10-16T03:17:40;12.88;74.13
75705;DHT22;64323;44.788;37.692;2022-10-16T03:20:12;12.86;73.78
75705;DHT22;64323;44.788;37.692;2022-10-16T03:22:44;12.85;74.06
75705;DHT22;64323;44.788;37.692;2022-10-16T03:25:16;12.85;74.21
75705;DHT22;64323;44.788;37.692;2022-10-16T03:27:48;12.84;74.50
75705;DHT22;64323;44.788;37.692;2022-10-16T03:30:20;12.81;74.25
75705;DHT22;64323;44.788;37.692;2022-10-16T03:32:52;12.79;74.17
75705;DHT22;64323;44.788;37.692;2022-10-16T03:35:25;12.77;74.57
75705;DHT22;64323;44.788;37.692;2022-10-16T03:37:57;12.77;74.83
75705;DHT22;64323;44.788;37.692;2022-10-16T03:40:29;12.73;74.76
75705;DHT22;64323;44.788;37.692;2022-10-16T03:43:03;12.76;74.74
75705;DHT22;64323;44.788;37.692;2022-10-16T03:45:35;12.79;74.65
75705;DHT22;64323;44.788;37.692;2022-10-16T03:48:07;12.80;74.67
75705;DHT22;64323;44.788;37.692;2022-10-16T03:50:38;12.75;74.70
75705;DHT22;64323;44.788;37.692;2022-10-16T03:53:11;12.76;75.24
75705;DHT22;64323;44.788;37.692;2022-10-16T03:55:43;12.79;74.73
75705;DHT22;64323;44.788;37.692;2022-10-16T03:58:15;12.80;74.51
75705;DHT22;64323;44.788;37.692;2022-10-16T04:00:48;12.77;74.42
75705;DHT22;64323;44.788;37.692;2022-10-16T04:03:20;12.79;74.96
75705;DHT22;64323;44.788;37.692;2022-10-16T04:05:52;12.81;74.70
75705;DHT22;64323;44.788;37.692;2022-10-16T04:08:24;12.81;74.67
75705;DHT22;64323;44.788;37.692;2022-10-16T04:10:56;12.82;74.67
75705;DHT22;64323;44.788;37.692;2022-10-16T04:13:28;12.79;74.87
75705;DHT22;64323;44.788;37.692;2022-10-16T04:16:00;12.84;75.12
75705;DHT22;64323;44.788;37.692;2022-10-16T04:18:32;12.87;74.93
75705;DHT22;64323;44.788;37.692;2022-10-16T04:21:07;12.87;75.06
75705;DHT22;64323;44.788;37.692;2022-10-16T04:23:39;12.88;75.25
75705;DHT22;64323;44.788;37.692;2022-10-16T04:26:11;12.89;75.09
75705;DHT22;64323;44.788;37.692;2022-10-16T04:28:43;12.88;74.99
75705;DHT22;64323;44.788;37.692;2022-10-16T04:31:14;12.92;74.98
75705;DHT22;64323;44.788;37.692;2022-10-16T04:33:46;12.92;74.79
75705;DHT22;64323;44.788;37.692;2022-10-16T04:36:18;12.97;74.25
75705;DHT22;64323;44.788;37.692;2022-10-16T04:38:50;12.97;74.57
75705;DHT22;64323;44.788;37.692;2022-10-16T04:41:22;12.97;74.54
75705;DHT22;64323;44.788;37.692;2022-10-16T04:43:54;13.02;74.23
75705;DHT22;64323;44.788;37.692;2022-10-16T04:46:25;13.02;74.29
75705;DHT22;64323;44.788;37.692;2022-10-16T04:48:57;13.07;74.02
75705;DHT22;64323;44.788;37.692;2022-10-16T04:51:29;13.11;74.15
75705;DHT22;64323;44.788;37.692;2022-10-16T04:54:01;13.17;74.22
75705;DHT22;64323;44.788;37.692;2022-10-16T04:56:33;13.15;74.18
75705;DHT22;64323;44.788;37.692;2022-10-16T04:59:11;13.20;74.22
75705;DHT22;64323;44.788;37.692;2022-10-16T05:01:43;13.23;74.28
75705;DHT22;64323;44.788;37.692;2022-10-16T05:04:15;13.30;73.91
75705;DHT22;64323;44.788;37.692;2022-10-16T05:06:47;13.36;74.15
75705;DHT22;64323;44.788;37.692;2022-10-16T05:09:19;13.43;73.01
75705;DHT22;64323;44.788;37.692;2022-10-16T05:11:51;13.48;73.81
75705;DHT22;64323;44.788;37.692;2022-10-16T05:14:23;13.53;72.69
75705;DHT22;64323;44.788;37.692;2022-10-16T05:16:55;13.60;73.05
75705;DHT22;64323;44.788;37.692;2022-10-16T05:19:27;13.66;73.19
75705;DHT22;64323;44.788;37.692;2022-10-16T05:21:59;13.67;73.05
75705;DHT22;64323;44.788;37.692;2022-10-16T05:24:32;13.67;72.65
75705;DHT22;64323;44.788;37.692;2022-10-16T05:27:04;13.76;72.98
75705;DHT22;64323;44.788;37.692;2022-10-16T05:29:36;13.80;73.05
75705;DHT22;64323;44.788;37.692;2022-10-16T05:32:08;13.85;71.66
75705;DHT22;64323;44.788;37.692;2022-10-16T05:34:40;13.93;72.43
75705;DHT22;64323;44.788;37.692;2022-10-16T05:37:12;13.99;71.51
75705;DHT22;64323;44.788;37.692;2022-10-16T05:39:44;14.00;71.59
75705;DHT22;64323;44.788;37.692;2022-10-16T05:42:16;14.06;71.84
75705;DHT22;64323;44.788;37.692;2022-10-16T05:44:48;14.14;72.09
75705;DHT22;64323;44.788;37.692;2022-10-16T05:47:20;14.22;72.04
75705;DHT22;64323;44.788;37.692;2022-10-16T05:49:52;14.32;71.82
75705;DHT22;64323;44.788;37.692;2022-10-16T05:52:24;14.39;71.19
75705;DHT22;64323;44.788;37.692;2022-10-16T05:54:56;14.41;71.30
75705;DHT22;64323;44.788;37.692;2022-10-16T05:57:28;14.47;71.22
75705;DHT22;64323;44.788;37.692;2022-10-16T06:00:00;14.54;70.96
75705;DHT22;64323;44.788;37.692;2022-10-16T06:02:32;14.65;70.77
75705;DHT22;64323;44.788;37.692;2022-10-16T06:05:05;14.73;70.00
75705;DHT22;64323;44.788;37.692;2022-10-16T06:07:37;14.85;70.61
75705;DHT22;64323;44.788;37.692;2022-10-16T06:10:09;15.00;69.83
75705;DHT22;64323;44.788;37.692;2022-10-16T06:12:40;15.06;69.29
75705;DHT22;64323;44.788;37.692;2022-10-16T06:15:12;15.11;68.78
75705;DHT22;64323;44.788;37.692;2022-10-16T06:17:44;15.21;68.84
75705;DHT22;64323;44.788;37.692;2022-10-16T06:20:16;15.34;68.79
75705;DHT22;64323;44.788;37.692;2022-10-16T06:22:48;15.49;68.84
75705;DHT22;64323;44.788;37.692;2022-10-16T06:25:20;15.54;67.78
75705;DHT22;64323;44.788;37.692;2022-10-16T06:27:52;15.62;67.81
75705;DHT22;64323;44.788;37.692;2022-10-16T06:30:23;15.71;67.49
75705;DHT22;64323;44.788;37.692;2022-10-16T06:32:55;15.81;67.34
75705;DHT22;64323;44.788;37.692;2022-10-16T06:35:27;15.90;67.95
75705;DHT22;64323;44.788;37.692;2022-10-16T06:38:00;15.95;67.42
75705;DHT22;64323;44.788;37.692;2022-10-16T06:40:32;16.04;66.72
75705;DHT22;64323;44.788;37.692;2022-10-16T06:43:04;16.12;65.88
75705;DHT22;64323;44.788;37.692;2022-10-16T06:45:36;16.25;66.24
75705;DHT22;64323;44.788;37.692;2022-10-16T06:48:08;16.36;65.43
75705;DHT22;64323;44.788;37.692;2022-10-16T06:50:39;16.41;64.72
75705;DHT22;64323;44.788;37.692;2022-10-16T06:53:11;16.45;65.76
75705;DHT22;64323;44.788;37.692;2022-10-16T06:55:43;16.49;65.50
75705;DHT22;64323;44.788;37.692;2022-10-16T06:58:15;16.57;66.40
75705;DHT22;64323;44.788;37.692;2022-10-16T07:00:47;16.65;66.41
75705;DHT22;64323;44.788;37.692;2022-10-16T07:03:19;16.62;64.72
75705;DHT22;64323;44.788;37.692;2022-10-16T07:05:51;16.62;65.21
75705;DHT22;64323;44.788;37.692;2022-10-16T07:08:23;16.63;65.48
75705;DHT22;64323;44.788;37.692;2022-10-16T07:11:02;16.73;65.48
75705;DHT22;64323;44.788;37.692;2022-10-16T07:13:35;16.76;65.57
75705;DHT22;64323;44.788;37.692;2022-10-16T07:16:13;16.76;64.42
75705;DHT22;64323;44.788;37.692;2022-10-16T07:18:45;16.85;65.37
75705;DHT22;64323;44.788;37.692;2022-10-16T07:21:21;16.91;65.06
75705;DHT22;64323;44.788;37.692;2022-10-16T07:23:56;16.95;64.78
75705;DHT22;64323;44.788;37.692;2022-10-16T07:26:30;17.04;64.59
75705;DHT22;64323;44.788;37.692;2022-10-16T07:29:02;17.14;63.76
75705;DHT22;64323;44.788;37.692;2022-10-16T07:31:35;17.23;63.40
75705;DHT22;64323;44.788;37.692;2022-10-16T07:34:11;17.29;63.66
75705;DHT22;64323;44.788;37.692;2022-10-16T07:36:43;17.31;63.79
75705;DHT22;64323;44.788;37.692;2022-10-16T07:39:15;17.38;62.95
75705;DHT22;64323;44.788;37.692;2022-10-16T07:41:47;17.53;64.72
75705;DHT22;64323;44.788;37.692;2022-10-16T07:44:19;17.63;63.21
75705;DHT22;64323;44.788;37.692;2022-10-16T07:46:51;17.72;62.63
75705;DHT22;64323;44.788;37.692;2022-10-16T07:49:23;17.84;63.83
75705;DHT22;64323;44.788;37.692;2022-10-16T07:51:54;18.00;61.46
75705;DHT22;64323;44.788;37.692;2022-10-16T07:54:26;18.09;60.93
75705;DHT22;64323;44.788;37.692;2022-10-16T07:56:58;18.23;61.57
75705;DHT22;64323;44.788;37.692;2022-10-16T07:59:30;18.27;60.73
75705;DHT22;64323;44.788;37.692;2022-10-16T08:02:02;18.35;61.09
75705;DHT22;64323;44.788;37.692;2022-10-16T08:04:34;18.33;60.73
75705;DHT22;64323;44.788;37.692;2022-10-16T08:07:07;18.41;61.12
75705;DHT22;64323;44.788;37.692;2022-10-16T08:09:40;18.43;60.22
75705;DHT22;64323;44.788;37.692;2022-10-16T08:12:12;18.43;60.37
75705;DHT22;64323;44.788;37.692;2022-10-16T08:14:43;18.64;60.32
75705;DHT22;64323;44.788;37.692;2022-10-16T08:17:15;18.77;59.73
75705;DHT22;64323;44.788;37.692;2022-10-16T08:19:47;18.85;59.42
75705;DHT22;64323;44.788;37.692;2022-10-16T08:22:19;18.94;59.16
75705;DHT22;64323;44.788;37.692;2022-10-16T08:24:51;19.10;57.56
75705;DHT22;64323;44.788;37.692;2022-10-16T08:27:23;19.25;57.06
75705;DHT22;64323;44.788;37.692;2022-10-16T08:29:55;19.40;58.35
75705;DHT22;64323;44.788;37.692;2022-10-16T08:32:27;19.48;56.90
75705;DHT22;64323;44.788;37.692;2022-10-16T08:34:58;19.59;56.06
75705;DHT22;64323;44.788;37.692;2022-10-16T08:37:31;19.68;55.97
75705;DHT22;64323;44.788;37.692;2022-10-16T08:40:06;19.60;56.16
75705;DHT22;64323;44.788;37.692;2022-10-16T08:48:14;19.96;57.44
75705;DHT22;64323;44.788;37.692;2022-10-16T08:50:48;20.25;55.29
75705;DHT22;64323;44.788;37.692;2022-10-16T08:53:25;20.32;54.18
75705;DHT22;64323;44.788;37.692;2022-10-16T08:55:58;20.50;54.61
75705;DHT22;64323;44.788;37.692;2022-10-16T08:58:31;20.70;54.10
75705;DHT22;64323;44.788;37.692;2022-10-16T09:01:05;20.81;53.65
75705;DHT22;64323;44.788;37.692;2022-10-16T09:23:37;21.36;53.33
75705;DHT22;64323;44.788;37.692;2022-10-16T09:26:13;21.37;52.69
75705;DHT22;64323;44.788;37.692;2022-10-16T09:28:45;21.61;52.38
75705;DHT22;64323;44.788;37.692;2022-10-16T09:31:20;21.67;51.58
75705;DHT22;64323;44.788;37.692;2022-10-16T09:33:57;21.40;52.07
75705;DHT22;64323;44.788;37.692;2022-10-16T09:36:36;21.31;53.35
75705;DHT22;64323;44.788;37.692;2022-10-16T09:39:11;21.45;51.36
75705;DHT22;64323;44.788;37.692;2022-10-16T09:41:44;21.55;51.16
75705;DHT22;64323;44.788;37.692;2022-10-16T09:44:25;21.55;51.78
75705;DHT22;64323;44.788;37.692;2022-10-16T09:47:03;21.75;52.18
75705;DHT22;64323;44.788;37.692;2022-10-16T09:49:36;21.94;51.10
75705;DHT22;64323;44.788;37.692;2022-10-16T09:52:15;22.01;51.64
75705;DHT22;64323;44.788;37.692;2022-10-16T09:54:57;21.96;50.66
75705;DHT22;64323;44.788;37.692;2022-10-16T09:57:29;21.88;52.13
75705;DHT22;64323;44.788;37.692;2022-10-16T10:00:22;21.65;51.33
75705;DHT22;64323;44.788;37.692;2022-10-16T10:02:55;21.55;51.82
75705;DHT22;64323;44.788;37.692;2022-10-16T10:05:28;21.42;52.92
75705;DHT22;64323;44.788;37.692;2022-10-16T10:08:03;21.39;53.00
75705;DHT22;64323;44.788;37.692;2022-10-16T10:10:42;21.38;53.30
75705;DHT22;64323;44.788;37.692;2022-10-16T10:13:19;21.36;52.04
75705;DHT22;64323;44.788;37.692;2022-10-16T10:15:52;21.29;52.78
75705;DHT22;64323;44.788;37.692;2022-10-16T10:18:24;21.19;52.86
75705;DHT22;64323;44.788;37.692;2022-10-16T10:21:00;21.06;53.19
75705;DHT22;64323;44.788;37.692;2022-10-16T10:23:32;21.08;54.84
75705;DHT22;64323;44.788;37.692;2022-10-16T10:26:24;21.06;54.35
75705;DHT22;64323;44.788;37.692;2022-10-16T10:29:16;21.09;54.62
75705;DHT22;64323;44.788;37.692;2022-10-16T10:32:07;21.08;54.14
75705;DHT22;64323;44.788;37.692;2022-10-16T10:34:47;21.02;54.54
75705;DHT22;64323;44.788;37.692;2022-10-16T10:40:09;20.98;54.61
75705;DHT22;64323;44.788;37.692;2022-10-16T10:45:46;21.33;55.56
75705;DHT22;64323;44.788;37.692;2022-10-16T10:48:30;21.23;53.77
75705;DHT22;64323;44.788;37.692;2022-10-16T10:51:40;21.19;56.05
75705;DHT22;64323;44.788;37.692;2022-10-16T10:54:28;21.13;54.76
75705;DHT22;64323;44.788;37.692;2022-10-16T11:02:41;20.77;56.41
75705;DHT22;64323;44.788;37.692;2022-10-16T11:08:18;20.46;57.84
75705;DHT22;64323;44.788;37.692;2022-10-16T11:10:54;20.46;57.25
75705;DHT22;64323;44.788;37.692;2022-10-16T11:13:58;20.45;58.17
75705;DHT22;64323;44.788;37.692;2022-10-16T11:16:37;20.48;57.29
75705;DHT22;64323;44.788;37.692;2022-10-16T11:22:09;20.50;57.71
75705;DHT22;64323;44.788;37.692;2022-10-16T11:27:37;20.44;58.58
75705;DHT22;64323;44.788;37.692;2022-10-16T11:30:22;20.47;59.36
75705;DHT22;64323;44.788;37.692;2022-10-16T11:35:55;20.40;59.09
75705;DHT22;64323;44.788;37.692;2022-10-16T11:45:00;20.57;59.07
75705;DHT22;64323;44.788;37.692;2022-10-16T11:47:40;20.57;58.70
75705;DHT22;64323;44.788;37.692;2022-10-16T11:50:36;20.53;59.25
75705;DHT22;64323;44.788;37.692;2022-10-16T11:53:46;20.61;58.91
75705;DHT22;64323;44.788;37.692;2022-10-16T11:56:21;20.49;58.17
75705;DHT22;64323;44.788;37.692;2022-10-16T11:59:00;20.35;59.82
75705;DHT22;64323;44.788;37.692;2022-10-16T12:01:54;20.32;58.90
75705;DHT22;64323;44.788;37.692;2022-10-16T12:04:51;20.20;61.08
75705;DHT22;64323;44.788;37.692;2022-10-16T12:07:35;20.16;60.02
75705;DHT22;64323;44.788;37.692;2022-10-16T12:10:24;20.14;59.73
75705;DHT22;64323;44.788;37.692;2022-10-16T12:12:56;20.05;60.57
75705;DHT22;64323;44.788;37.692;2022-10-16T12:15:31;20.06;60.90
75705;DHT22;64323;44.788;37.692;2022-10-16T12:18:04;20.09;62.05
75705;DHT22;64323;44.788;37.692;2022-10-16T12:20:36;20.13;61.04
75705;DHT22;64323;44.788;37.692;2022-10-16T12:23:20;20.16;61.27
75705;DHT22;64323;44.788;37.692;2022-10-16T12:25:55;20.19;60.99
75705;DHT22;64323;44.788;37.692;2022-10-16T12:28:29;20.17;60.96
75705;DHT22;64323;44.788;37.692;2022-10-16T12:31:07;20.19;61.64
75705;DHT22;64323;44.788;37.692;2022-10-16T12:33:52;20.26;62.21
75705;DHT22;64323;44.788;37.692;2022-10-16T12:36:34;20.35;62.06
75705;DHT22;64323;44.788;37.692;2022-10-16T12:39:21;20.37;60.99
75705;DHT22;64323;44.788;37.692;2022-10-16T12:44:57;20.35;62.15
75705;DHT22;64323;44.788;37.692;2022-10-16T12:50:24;20.27;61.94
75705;DHT22;64323;44.788;37.692;2022-10-16T12:52:56;20.19;62.46
75705;DHT22;64323;44.788;37.692;2022-10-16T12:55:42;20.19;62.28
75705;DHT22;64323;44.788;37.692;2022-10-16T13:04:13;20.06;62.61
75705;DHT22;64323;44.788;37.692;2022-10-16T13:06:58;20.04;63.23
75705;DHT22;64323;44.788;37.692;2022-10-16T13:12:35;19.90;63.37
75705;DHT22;64323;44.788;37.692;2022-10-16T13:15:30;19.86;63.95
75705;DHT22;64323;44.788;37.692;2022-10-16T13:18:16;19.77;63.95
75705;DHT22;64323;44.788;37.692;2022-10-16T13:26:27;19.65;64.43
75705;DHT22;64323;44.788;37.692;2022-10-16T13:29:02;19.67;64.63
75705;DHT22;64323;44.788;37.692;2022-10-16T13:31:38;19.67;65.27
75705;DHT22;64323;44.788;37.692;2022-10-16T13:34:15;19.66;64.85
75705;DHT22;64323;44.788;37.692;2022-10-16T13:36:50;19.61;65.50
75705;DHT22;64323;44.788;37.692;2022-10-16T13:39:25;19.55;65.02
75705;DHT22;64323;44.788;37.692;2022-10-16T13:42:11;19.69;65.53
75705;DHT22;64323;44.788;37.692;2022-10-16T13:44:48;19.61;65.37
75705;DHT22;64323;44.788;37.692;2022-10-16T13:47:25;19.56;65.31
75705;DHT22;64323;44.788;37.692;2022-10-16T13:50:04;19.51;65.98
75705;DHT22;64323;44.788;37.692;2022-10-16T13:52:36;19.46;66.04
75705;DHT22;64323;44.788;37.692;2022-10-16T13:55:14;19.44;66.22
75705;DHT22;64323;44.788;37.692;2022-10-16T13:57:46;19.36;66.28
75705;DHT22;64323;44.788;37.692;2022-10-16T14:00:20;19.33;66.59
75705;DHT22;64323;44.788;37.692;2022-10-16T14:03:01;19.33;66.72
75705;DHT22;64323;44.788;37.692;2022-10-16T14:05:33;19.27;66.07
75705;DHT22;64323;44.788;37.692;2022-10-16T14:08:09;19.24;66.72
75705;DHT22;64323;44.788;37.692;2022-10-16T14:10:42;19.20;66.60
75705;DHT22;64323;44.788;37.692;2022-10-16T14:13:45;19.13;66.79
75705;DHT22;64323;44.788;37.692;2022-10-16T14:16:21;19.11;67.07
75705;DHT22;64323;44.788;37.692;2022-10-16T14:18:58;19.08;67.30
75705;DHT22;64323;44.788;37.692;2022-10-16T14:21:31;19.02;67.31
75705;DHT22;64323;44.788;37.692;2022-10-16T14:24:19;18.96;67.46
75705;DHT22;64323;44.788;37.692;2022-10-16T14:26:54;18.92;67.18
75705;DHT22;64323;44.788;37.692;2022-10-16T14:29:29;18.82;67.48
75705;DHT22;64323;44.788;37.692;2022-10-16T14:32:20;18.81;67.37
75705;DHT22;64323;44.788;37.692;2022-10-16T14:34:54;18.74;67.62
75705;DHT22;64323;44.788;37.692;2022-10-16T14:37:29;18.67;67.83
75705;DHT22;64323;44.788;37.692;2022-10-16T14:40:02;18.68;68.13
75705;DHT22;64323;44.788;37.692;2022-10-16T14:42:34;18.61;68.58
75705;DHT22;64323;44.788;37.692;2022-10-16T14:45:09;18.51;68.17
75705;DHT22;64323;44.788;37.692;2022-10-16T14:48:06;18.47;68.03
75705;DHT22;64323;44.788;37.692;2022-10-16T14:50:45;18.42;68.46
75705;DHT22;64323;44.788;37.692;2022-10-16T14:53:17;18.42;67.95
75705;DHT22;64323;44.788;37.692;2022-10-16T14:55:49;18.40;67.94
75705;DHT22;64323;44.788;37.692;2022-10-16T14:58:22;18.36;68.58
75705;DHT22;64323;44.788;37.692;2022-10-16T15:00:56;18.35;68.81
75705;DHT22;64323;44.788;37.692;2022-10-16T15:03:27;18.32;68.03
75705;DHT22;64323;44.788;37.692;2022-10-16T15:05:59;18.36;68.55
75705;DHT22;64323;44.788;37.692;2022-10-16T15:08:31;18.28;68.35
75705;DHT22;64323;44.788;37.692;2022-10-16T15:11:03;18.26;68.34
75705;DHT22;64323;44.788;37.692;2022-10-16T15:13:35;18.26;68.10
75705;DHT22;64323;44.788;37.692;2022-10-16T15:16:15;18.26;68.55
75705;DHT22;64323;44.788;37.692;2022-10-16T15:18:47;18.22;68.69
75705;DHT22;64323;44.788;37.692;2022-10-16T15:21:31;18.21;68.48
75705;DHT22;64323;44.788;37.692;2022-10-16T15:24:09;18.18;68.71
75705;DHT22;64323;44.788;37.692;2022-10-16T15:26:43;18.17;68.55
75705;DHT22;64323;44.788;37.692;2022-10-16T15:29:15;18.19;68.70
75705;DHT22;64323;44.788;37.692;2022-10-16T15:31:47;18.15;68.65
75705;DHT22;64323;44.788;37.692;2022-10-16T15:34:19;18.15;68.46
75705;DHT22;64323;44.788;37.692;2022-10-16T15:36:50;18.19;68.83
75705;DHT22;64323;44.788;37.692;2022-10-16T15:39:22;18.18;68.45
75705;DHT22;64323;44.788;37.692;2022-10-16T15:41:54;18.17;68.17
75705;DHT22;64323;44.788;37.692;2022-10-16T15:44:26;18.13;68.20
75705;DHT22;64323;44.788;37.692;2022-10-16T15:47:01;18.09;68.80
75705;DHT22;64323;44.788;37.692;2022-10-16T15:49:33;18.06;68.42
75705;DHT22;64323;44.788;37.692;2022-10-16T15:52:05;18.05;68.59
75705;DHT22;64323;44.788;37.692;2022-10-16T15:54:37;18.02;68.74
75705;DHT22;64323;44.788;37.692;2022-10-16T15:57:09;18.02;69.05
75705;DHT22;64323;44.788;37.692;2022-10-16T15:59:41;17.97;68.54
75705;DHT22;64323;44.788;37.692;2022-10-16T16:02:14;17.97;68.93
75705;DHT22;64323;44.788;37.692;2022-10-16T16:04:46;17.96;69.04
75705;DHT22;64323;44.788;37.692;2022-10-16T16:07:18;17.95;68.87
75705;DHT22;64323;44.788;37.692;2022-10-16T16:09:49;17.95;68.81
75705;DHT22;64323;44.788;37.692;2022-10-16T16:12:22;17.96;69.23
75705;DHT22;64323;44.788;37.692;2022-10-16T16:14:54;17.96;69.33
75705;DHT22;64323;44.788;37.692;2022-10-16T16:17:27;17.94;69.34
75705;DHT22;64323;44.788;37.692;2022-10-16T16:19:59;17.90;69.25
75705;DHT22;64323;44.788;37.692;2022-10-16T16:22:31;17.88;69.28
75705;DHT22;64323;44.788;37.692;2022-10-16T16:25:04;17.84;69.45
75705;DHT22;64323;44.788;37.692;2022-10-16T16:27:37;17.84;69.52
75705;DHT22;64323;44.788;37.692;2022-10-16T16:30:11;17.82;69.37
75705;DHT22;64323;44.788;37.692;2022-10-16T16:32:43;17.79;69.09
75705;DHT22;64323;44.788;37.692;2022-10-16T16:35:15;17.77;69.65
75705;DHT22;64323;44.788;37.692;2022-10-16T16:37:48;17.76;69.84
75705;DHT22;64323;44.788;37.692;2022-10-16T16:40:19;17.75;69.49
75705;DHT22;64323;44.788;37.692;2022-10-16T16:42:51;17.72;69.56
75705;DHT22;64323;44.788;37.692;2022-10-16T16:45:24;17.69;69.68
75705;DHT22;64323;44.788;37.692;2022-10-16T16:47:59;17.72;69.71
75705;DHT22;64323;44.788;37.692;2022-10-16T16:50:35;17.69;69.44
75705;DHT22;64323;44.788;37.692;2022-10-16T16:53:07;17.67;69.16
75705;DHT22;64323;44.788;37.692;2022-10-16T16:55:39;17.63;69.22
75705;DHT22;64323;44.788;37.692;2022-10-16T16:58:11;17.59;69.47
75705;DHT22;64323;44.788;37.692;2022-10-16T17:00:47;17.56;69.84
75705;DHT22;64323;44.788;37.692;2022-10-16T17:03:19;17.55;69.36
75705;DHT22;64323;44.788;37.692;2022-10-16T17:05:57;17.52;69.49
75705;DHT22;64323;44.788;37.692;2022-10-16T17:08:30;17.53;69.11
75705;DHT22;64323;44.788;37.692;2022-10-16T17:11:02;17.51;69.35
75705;DHT22;64323;44.788;37.692;2022-10-16T17:13:35;17.46;69.20
75705;DHT22;64323;44.788;37.692;2022-10-16T17:16:10;17.43;69.69
75705;DHT22;64323;44.788;37.692;2022-10-16T17:18:43;17.39;69.94
75705;DHT22;64323;44.788;37.692;2022-10-16T17:21:15;17.35;69.55
75705;DHT22;64323;44.788;37.692;2022-10-16T17:23:50;17.29;69.51
75705;DHT22;64323;44.788;37.692;2022-10-16T17:26:33;17.25;70.19
75705;DHT22;64323;44.788;37.692;2022-10-16T17:29:10;17.24;69.99